Windcrest, Texas
Current Conditions -  °F | °C
As of 2:58 PM on Sunday 23 Nov 2014 (Local Time) from KRND Reporting Station
Clear Clear  
Wind Chill: 79°   Ceiling: Unl
Heat Index: 79°   Visibility: 10mi
Dew Point: 43°   Wind: 17mph
Humidity: 27%   Direction: 250°WSW
Pressure: 29.56"   Gusts: NA
Location:  29.5172°N, 98.362°W
Report Text: KRND 232058Z AUTO 25015KT 10SM CLR 26/06 A2956 RMK AO2 SLP004 T02610059 56028
Loading
Personal Weather Stations






























Interactive Weather Map New forecast layout! Learn more

10-Day Weather Forecast

Advertisements
Track Severe Weather on mobile